Time;durP1;ratioP1;P1;durP2;ratioP2;P2;SDS_P1;SDS_P2;PMS_P1;PMS_P2;Temp;Humidity;BMP_temperature;BMP_pressure;BME280_temperature;BME280_humidity;BME280_pressure;Samples;Min_cycle;Max_cycle;Signal;HPM_P1;HPM_P2
2021/09/17 00:00:30;;;;;;;26.13;12.65;;;17.10;94.00;;;;;;5072938;28;20024;-79
2021/09/17 00:02:59;;;;;;;21.80;11.88;;;17.20;94.00;;;;;;5072911;28;20025;-79
2021/09/17 00:05:25;;;;;;;20.98;12.18;;;17.10;94.10;;;;;;5074050;28;20461;-78
2021/09/17 00:07:50;;;;;;;22.73;12.07;;;17.10;94.10;;;;;;5072774;28;20540;-77
2021/09/17 00:10:17;;;;;;;23.13;12.68;;;17.10;94.10;;;;;;5073364;28;20372;-77
2021/09/17 00:12:43;;;;;;;26.08;12.35;;;17.20;94.10;;;;;;5071791;28;20119;-78
2021/09/17 00:15:10;;;;;;;26.40;12.60;;;17.20;94.10;;;;;;5071807;28;20400;-78
2021/09/17 00:17:37;;;;;;;24.42;12.25;;;17.20;94.10;;;;;;5074050;28;20033;-78
2021/09/17 00:20:05;;;;;;;22.15;12.00;;;17.20;94.00;;;;;;5071698;28;20039;-78
2021/09/17 00:22:31;;;;;;;23.40;12.65;;;17.20;94.00;;;;;;5072199;28;20016;-78
2021/09/17 00:24:57;;;;;;;26.98;12.73;;;17.20;94.10;;;;;;5073199;28;20059;-77
2021/09/17 00:27:23;;;;;;;22.45;11.95;;;17.20;94.10;;;;;;5073431;28;20025;-78
2021/09/17 00:29:49;;;;;;;26.33;13.05;;;17.20;94.10;;;;;;5071858;28;20063;-78
2021/09/17 00:32:15;;;;;;;21.00;11.85;;;17.20;94.20;;;;;;5070939;28;20024;-78
2021/09/17 00:34:41;;;;;;;24.90;12.20;;;17.20;94.20;;;;;;5088958;28;20055;-78
2021/09/17 00:37:07;;;;;;;23.65;12.30;;;17.20;94.20;;;;;;5072351;28;20529;-78
2021/09/17 00:39:32;;;;;;;30.15;14.27;;;17.20;94.10;;;;;;5071962;28;20031;-78
2021/09/17 00:41:59;;;;;;;28.10;13.07;;;17.20;94.10;;;;;;5073116;28;20503;-78
2021/09/17 00:44:27;;;;;;;23.08;11.95;;;17.30;94.10;;;;;;5073623;28;20066;-78
2021/09/17 00:46:53;;;;;;;26.73;13.48;;;17.30;94.10;;;;;;5072956;28;20021;-78
2021/09/17 00:49:20;;;;;;;24.90;12.93;;;17.30;94.10;;;;;;5071273;28;20425;-78
2021/09/17 00:51:47;;;;;;;28.38;13.48;;;17.30;94.10;;;;;;5072757;28;20495;-78
2021/09/17 00:54:14;;;;;;;25.92;13.38;;;17.30;94.20;;;;;;5071137;28;20096;-77
2021/09/17 00:56:41;;;;;;;28.90;13.13;;;17.30;94.20;;;;;;5072913;28;20024;-78
2021/09/17 00:59:07;;;;;;;25.67;13.70;;;17.40;94.20;;;;;;5074975;28;20020;-78
2021/09/17 01:01:33;;;;;;;25.77;12.93;;;17.30;94.20;;;;;;5073127;28;20024;-78
2021/09/17 01:03:59;;;;;;;26.75;13.02;;;17.30;94.20;;;;;;5072911;28;20020;-77
2021/09/17 01:06:25;;;;;;;26.40;14.55;;;17.40;94.20;;;;;;5070817;28;20028;-77
2021/09/17 01:08:50;;;;;;;29.23;13.85;;;17.40;94.20;;;;;;5073029;28;20428;-78
2021/09/17 01:11:17;;;;;;;30.80;14.65;;;17.40;94.20;;;;;;5072397;28;20120;-78
2021/09/17 01:13:44;;;;;;;27.77;14.20;;;17.40;94.30;;;;;;5071381;28;20019;-78
2021/09/17 01:16:10;;;;;;;27.33;13.43;;;17.40;94.30;;;;;;5071989;28;20158;-78
2021/09/17 01:18:36;;;;;;;28.20;13.55;;;17.40;94.30;;;;;;5072584;28;20468;-77
2021/09/17 01:21:03;;;;;;;29.00;13.43;;;17.40;94.30;;;;;;5070900;28;20381;-85
2021/09/17 01:23:30;;;;;;;27.10;13.20;;;17.40;94.30;;;;;;5072455;28;20178;-78
2021/09/17 01:25:56;;;;;;;25.70;13.45;;;17.40;94.30;;;;;;5071029;28;20039;-78
2021/09/17 01:28:27;;;;;;;26.02;13.45;;;17.40;94.30;;;;;;5071529;28;20055;-78
2021/09/17 01:30:54;;;;;;;24.90;12.70;;;17.40;94.40;;;;;;5072394;28;20021;-78
2021/09/17 01:33:19;;;;;;;29.45;14.90;;;17.40;94.70;;;;;;5071600;28;20404;-78
2021/09/17 01:35:45;;;;;;;30.00;14.45;;;17.40;94.40;;;;;;5072100;28;20020;-78
2021/09/17 01:38:11;;;;;;;30.30;14.63;;;17.40;94.30;;;;;;5071628;28;20029;-78
2021/09/17 01:40:37;;;;;;;25.33;13.40;;;17.40;94.40;;;;;;5070746;28;20032;-78
2021/09/17 01:43:03;;;;;;;29.02;13.52;;;17.40;94.40;;;;;;5069777;28;20031;-83
2021/09/17 01:45:29;;;;;;;27.50;13.50;;;17.40;94.40;;;;;;5071782;28;20025;-78
2021/09/17 01:47:55;;;;;;;31.40;14.23;;;17.40;94.50;;;;;;5071891;28;20029;-78
2021/09/17 01:50:21;;;;;;;27.60;14.07;;;17.40;94.50;;;;;;5070166;28;20476;-78
2021/09/17 01:52:47;;;;;;;29.00;14.35;;;17.40;94.50;;;;;;5072089;28;20025;-77
2021/09/17 01:55:13;;;;;;;29.63;14.10;;;17.40;94.50;;;;;;5071555;28;20100;-78
2021/09/17 01:57:38;;;;;;;32.28;14.82;;;17.40;94.50;;;;;;5071957;28;20033;-78
2021/09/17 02:00:06;;;;;;;29.20;13.30;;;17.40;94.50;;;;;;5071883;28;20021;-83
2021/09/17 02:02:32;;;;;;;26.70;14.15;;;17.40;94.50;;;;;;5070705;28;20407;-78
2021/09/17 02:04:58;;;;;;;29.00;13.27;;;17.40;94.50;;;;;;5087439;28;20021;-78
2021/09/17 02:07:23;;;;;;;26.33;13.32;;;17.40;94.50;;;;;;5071107;28;20046;-78
2021/09/17 02:09:49;;;;;;;24.55;11.70;;;17.30;94.50;;;;;;5070625;28;20029;-77
2021/09/17 02:12:15;;;;;;;26.75;13.55;;;17.30;94.50;;;;;;5071441;28;20082;-78
2021/09/17 02:14:41;;;;;;;30.23;14.18;;;17.30;94.60;;;;;;5070630;28;20051;-78
2021/09/17 02:17:08;;;;;;;26.73;13.27;;;17.30;94.60;;;;;;5071006;28;20056;-79
2021/09/17 02:19:34;;;;;;;29.20;14.75;;;17.30;94.60;;;;;;5087022;28;20036;-77
2021/09/17 02:22:00;;;;;;;27.50;13.82;;;17.30;94.70;;;;;;5070516;28;20064;-78
2021/09/17 02:24:26;;;;;;;32.55;15.10;;;17.30;94.70;;;;;;5071228;28;20338;-78
2021/09/17 02:26:52;;;;;;;28.80;14.60;;;17.20;94.60;;;;;;5071535;28;20021;-78
2021/09/17 02:29:18;;;;;;;25.27;13.23;;;17.30;94.70;;;;;;5070746;28;20056;-78
2021/09/17 02:31:44;;;;;;;30.98;13.68;;;17.30;94.70;;;;;;5071919;28;20060;-78
2021/09/17 02:34:10;;;;;;;29.50;15.25;;;17.30;94.70;;;;;;5071176;28;20495;-78
2021/09/17 02:36:36;;;;;;;27.85;12.82;;;17.30;94.70;;;;;;5071608;28;20036;-78
2021/09/17 02:39:03;;;;;;;32.03;15.75;;;17.30;94.70;;;;;;5070214;28;20032;-78
2021/09/17 02:41:29;;;;;;;30.48;13.93;;;17.30;94.90;;;;;;5069763;28;20024;-78
2021/09/17 02:43:55;;;;;;;29.92;13.40;;;17.30;94.70;;;;;;5070246;28;20047;-78
2021/09/17 02:46:20;;;;;;;26.20;13.60;;;17.30;94.70;;;;;;5070648;28;20044;-78
2021/09/17 02:48:46;;;;;;;33.15;15.75;;;17.30;94.70;;;;;;5071642;28;20019;-78
2021/09/17 02:51:13;;;;;;;32.10;14.13;;;17.30;94.70;;;;;;5070915;28;20024;-78
2021/09/17 02:53:38;;;;;;;30.92;14.65;;;17.30;94.70;;;;;;5070065;28;20036;-78
2021/09/17 02:56:05;;;;;;;30.85;14.07;;;17.30;94.70;;;;;;5074855;28;20066;-78
2021/09/17 02:58:30;;;;;;;29.15;14.38;;;17.30;94.70;;;;;;5074881;28;20028;-77
2021/09/17 03:00:56;;;;;;;30.05;14.65;;;17.30;94.70;;;;;;5074982;28;20025;-78
2021/09/17 03:03:22;;;;;;;27.90;13.85;;;17.30;94.70;;;;;;5072772;28;20473;-78
2021/09/17 03:05:48;;;;;;;28.92;14.50;;;17.30;94.80;;;;;;5075032;28;20029;-78
2021/09/17 03:08:14;;;;;;;27.40;13.52;;;17.30;94.80;;;;;;5074170;28;20028;-78
2021/09/17 03:10:40;;;;;;;26.63;13.68;;;17.30;94.80;;;;;;5073864;28;20055;-78
2021/09/17 03:13:06;;;;;;;31.55;15.30;;;17.30;94.70;;;;;;5073755;28;20362;-78
2021/09/17 03:15:32;;;;;;;27.00;14.70;;;17.30;94.70;;;;;;5073000;28;20039;-76
2021/09/17 03:17:57;;;;;;;30.20;14.65;;;17.30;94.70;;;;;;5075010;28;20051;-77
2021/09/17 03:20:23;;;;;;;31.20;14.52;;;17.30;94.70;;;;;;5072985;28;20028;-77
2021/09/17 03:22:49;;;;;;;29.77;14.18;;;17.30;94.70;;;;;;5073681;28;20465;-77
2021/09/17 03:25:15;;;;;;;32.25;15.10;;;17.30;94.70;;;;;;5074182;28;20016;-78
2021/09/17 03:27:41;;;;;;;30.70;14.70;;;17.30;94.70;;;;;;5073157;28;20028;-77
2021/09/17 03:30:08;;;;;;;31.10;15.10;;;17.30;94.70;;;;;;5074791;28;20033;-77
2021/09/17 03:32:34;;;;;;;33.13;15.75;;;17.30;94.70;;;;;;5074002;28;20048;-78
2021/09/17 03:34:59;;;;;;;28.60;12.63;;;17.30;94.70;;;;;;5073083;28;20048;-77
2021/09/17 03:37:25;;;;;;;33.50;16.55;;;17.30;94.70;;;;;;5073669;28;20024;-77
2021/09/17 03:39:51;;;;;;;32.58;15.07;;;17.20;94.70;;;;;;5074620;28;20021;-77
2021/09/17 03:42:17;;;;;;;30.25;15.10;;;17.20;94.70;;;;;;5073599;28;20079;-78
2021/09/17 03:44:43;;;;;;;28.70;15.20;;;17.20;94.70;;;;;;5073264;28;20031;-78
2021/09/17 03:47:09;;;;;;;38.33;17.23;;;17.20;94.70;;;;;;5074613;28;20029;-77
2021/09/17 03:49:35;;;;;;;32.17;16.42;;;17.30;94.70;;;;;;5073623;28;20108;-77
2021/09/17 03:52:00;;;;;;;31.95;15.75;;;17.20;94.70;;;;;;5074294;28;20437;-77
2021/09/17 03:54:29;;;;;;;30.58;15.52;;;17.20;94.80;;;;;;5073367;28;20029;-77
2021/09/17 03:56:56;;;;;;;33.53;16.02;;;17.20;94.80;;;;;;5072799;28;20390;-77
2021/09/17 03:59:23;;;;;;;31.67;15.98;;;17.30;94.80;;;;;;5073473;28;20024;-77
2021/09/17 04:01:49;;;;;;;30.05;15.68;;;17.20;94.90;;;;;;5072836;28;20498;-77
2021/09/17 04:04:15;;;;;;;32.08;15.40;;;17.20;94.90;;;;;;5089092;28;20146;-77
2021/09/17 04:06:42;;;;;;;37.65;16.58;;;17.20;94.90;;;;;;5071766;28;20457;-77
2021/09/17 04:09:12;;;;;;;37.55;16.40;;;17.20;95.00;;;;;;5072559;28;20033;-77
2021/09/17 04:11:38;;;;;;;36.97;15.73;;;17.20;95.00;;;;;;5068478;28;20021;-77
2021/09/17 04:14:04;;;;;;;33.97;16.83;;;17.20;95.00;;;;;;5053631;28;20021;-77
2021/09/17 04:16:30;;;;;;;30.67;14.48;;;17.20;95.00;;;;;;5051177;28;20117;-77
2021/09/17 04:18:55;;;;;;;38.10;16.40;;;17.20;95.00;;;;;;5053680;28;20082;-77
2021/09/17 04:21:21;;;;;;;34.13;16.70;;;17.20;95.00;;;;;;5053218;28;20079;-77
2021/09/17 04:23:47;;;;;;;34.92;18.13;;;17.20;95.00;;;;;;5053848;28;20044;-78
2021/09/17 04:26:13;;;;;;;34.35;17.20;;;17.30;95.00;;;;;;5053683;28;20104;-77
2021/09/17 04:28:39;;;;;;;38.03;17.42;;;17.20;95.00;;;;;;5051291;28;20472;-77
2021/09/17 04:31:04;;;;;;;37.92;16.58;;;17.20;95.00;;;;;;5051973;28;20029;-78
2021/09/17 04:33:30;;;;;;;33.88;16.55;;;17.30;95.00;;;;;;5052766;28;20029;-77
2021/09/17 04:35:56;;;;;;;30.83;15.75;;;17.20;94.90;;;;;;5051701;28;20025;-77
2021/09/17 04:38:24;;;;;;;34.65;17.58;;;17.20;94.90;;;;;;5051293;28;20021;-77
2021/09/17 04:40:50;;;;;;;30.33;15.80;;;17.20;95.00;;;;;;5051924;28;20036;-77
2021/09/17 04:43:16;;;;;;;31.98;15.60;;;17.30;95.00;;;;;;5051924;28;20017;-77
2021/09/17 04:45:42;;;;;;;30.85;15.15;;;17.20;95.00;;;;;;5052166;28;20021;-77
2021/09/17 04:48:12;;;;;;;35.40;15.70;;;17.20;95.00;;;;;;5053242;28;20102;-77
2021/09/17 04:50:39;;;;;;;27.88;14.60;;;17.20;95.10;;;;;;5051189;28;20090;-77
2021/09/17 04:53:05;;;;;;;33.13;15.63;;;17.20;95.10;;;;;;5052907;28;20100;-78
2021/09/17 04:55:31;;;;;;;33.42;16.00;;;17.20;95.10;;;;;;5051130;28;20021;-78
2021/09/17 04:58:01;;;;;;;31.58;16.50;;;17.20;95.00;;;;;;5052903;28;20025;-78
2021/09/17 05:00:27;;;;;;;35.20;16.27;;;17.20;95.00;;;;;;5052182;28;20025;-77
2021/09/17 05:02:53;;;;;;;34.65;16.15;;;17.20;95.00;;;;;;5051452;28;20060;-76
2021/09/17 05:05:19;;;;;;;34.90;16.23;;;17.20;95.00;;;;;;5052275;28;20048;-78
2021/09/17 05:07:45;;;;;;;32.22;16.13;;;17.20;95.00;;;;;;5051507;28;20039;-76
2021/09/17 05:10:11;;;;;;;37.75;17.25;;;17.20;95.00;;;;;;5052296;28;20033;-77
2021/09/17 05:12:37;;;;;;;35.65;16.85;;;17.20;95.00;;;;;;5050738;28;20087;-77
2021/09/17 05:15:03;;;;;;;33.75;16.20;;;17.20;95.00;;;;;;5051268;28;20522;-77
2021/09/17 05:17:29;;;;;;;32.08;16.45;;;17.20;95.10;;;;;;5051548;28;20025;-77
2021/09/17 05:19:55;;;;;;;34.60;16.42;;;17.20;95.10;;;;;;5051190;28;20488;-77
2021/09/17 05:22:21;;;;;;;34.53;17.45;;;17.20;95.10;;;;;;5050418;28;20017;-78
2021/09/17 05:24:47;;;;;;;34.80;16.95;;;17.20;95.20;;;;;;5052558;28;20017;-78
2021/09/17 05:27:14;;;;;;;34.58;16.50;;;17.20;95.20;;;;;;5052711;28;20036;-78
2021/09/17 05:29:41;;;;;;;35.45;17.02;;;17.20;95.20;;;;;;5052565;28;20059;-80
2021/09/17 05:32:07;;;;;;;39.60;18.85;;;17.20;95.20;;;;;;5071601;28;20031;-78
2021/09/17 05:34:34;;;;;;;39.90;17.77;;;17.30;95.30;;;;;;5070939;28;20033;-78
2021/09/17 05:36:59;;;;;;;44.25;18.20;;;17.30;95.20;;;;;;5070213;28;20012;-77
2021/09/17 05:39:25;;;;;;;38.30;18.05;;;17.30;95.20;;;;;;5065811;28;20393;-80
2021/09/17 05:41:51;;;;;;;38.45;17.60;;;17.30;95.30;;;;;;5053724;28;20029;-79
2021/09/17 05:44:17;;;;;;;39.97;20.00;;;17.30;95.20;;;;;;5071067;28;20021;-79
2021/09/17 05:46:43;;;;;;;38.33;18.67;;;17.30;95.20;;;;;;5075245;28;20025;-79
2021/09/17 05:49:09;;;;;;;45.22;20.63;;;17.30;95.20;;;;;;5075340;28;20048;-79
2021/09/17 05:51:34;;;;;;;38.35;19.65;;;17.30;95.20;;;;;;5072612;28;20112;-79
2021/09/17 05:54:00;;;;;;;34.45;17.35;;;17.30;95.30;;;;;;5074317;28;20021;-78
2021/09/17 05:56:26;;;;;;;42.83;19.05;;;17.30;95.30;;;;;;5088665;28;20056;-79
2021/09/17 05:58:55;;;;;;;39.70;18.67;;;17.20;95.30;;;;;;5074818;28;20108;-78
2021/09/17 06:01:21;;;;;;;37.47;19.05;;;17.20;95.30;;;;;;5072461;28;20013;-78
2021/09/17 06:03:47;;;;;;;36.60;19.42;;;17.20;95.30;;;;;;5074514;28;20111;-78
2021/09/17 06:06:13;;;;;;;37.72;18.92;;;17.20;95.30;;;;;;5073557;28;20522;-77
2021/09/17 06:08:39;;;;;;;39.28;19.60;;;17.20;95.40;;;;;;5070909;28;20032;-75
2021/09/17 06:11:05;;;;;;;37.25;18.73;;;17.20;95.40;;;;;;5072791;28;20472;-75
2021/09/17 06:13:31;;;;;;;40.30;19.23;;;17.20;95.40;;;;;;5074979;28;20024;-76
2021/09/17 06:15:57;;;;;;;43.60;19.30;;;17.30;95.40;;;;;;5069727;28;20017;-76
2021/09/17 06:18:22;;;;;;;36.55;18.17;;;17.30;95.40;;;;;;5068938;28;20036;-79
2021/09/17 06:20:48;;;;;;;37.22;18.80;;;17.30;95.40;;;;;;5069587;28;20360;-76
2021/09/17 06:23:14;;;;;;;41.30;19.48;;;17.30;95.40;;;;;;5068245;28;20368;-79
2021/09/17 06:25:40;;;;;;;35.63;18.92;;;17.30;95.30;;;;;;5068376;28;20440;-78
2021/09/17 06:28:06;;;;;;;40.50;19.13;;;17.40;95.30;;;;;;5069622;28;20500;-79
2021/09/17 06:30:33;;;;;;;40.30;17.58;;;17.40;95.30;;;;;;5072117;28;20116;-78
2021/09/17 06:32:58;;;;;;;37.55;18.48;;;17.40;95.30;;;;;;5071838;28;20508;-80
2021/09/17 06:35:25;;;;;;;43.83;18.73;;;17.50;95.30;;;;;;5071845;28;20024;-78
2021/09/17 06:37:53;;;;;;;40.28;19.38;;;17.50;95.20;;;;;;5074164;28;20473;-78
2021/09/17 06:40:21;;;;;;;43.90;19.50;;;17.50;95.20;;;;;;5075677;28;20024;-77
2021/09/17 06:42:48;;;;;;;36.67;17.55;;;17.50;95.20;;;;;;5073204;28;20021;-77
2021/09/17 06:45:14;;;;;;;35.22;17.15;;;17.50;95.10;;;;;;5073657;28;20025;-77
2021/09/17 06:47:48;;;;;;;39.20;20.75;;;17.50;95.10;;;;;;5071974;28;20031;-74
2021/09/17 06:50:16;;;;;;;38.03;18.52;;;17.60;95.10;;;;;;5086853;28;20035;-72
2021/09/17 06:52:47;;;;;;;42.58;19.83;;;17.50;95.10;;;;;;5074049;28;20024;-73
2021/09/17 06:55:23;;;;;;;;;;;17.60;95.10;;;;;;5075473;28;20024;-72
2021/09/17 06:57:55;;;;;;;36.72;17.05;;;17.60;95.10;;;;;;5074045;28;19909;-72
2021/09/17 07:00:22;;;;;;;34.35;17.60;;;17.60;95.10;;;;;;5073785;28;20437;-72
2021/09/17 07:02:48;;;;;;;35.28;17.15;;;17.60;95.00;;;;;;5074207;28;20025;-73
2021/09/17 07:05:14;;;;;;;32.75;16.23;;;17.60;95.00;;;;;;5073136;28;20070;-72
2021/09/17 07:07:40;;;;;;;23.00;12.98;;;17.60;95.00;;;;;;5074201;28;20384;-73
2021/09/17 07:10:08;;;;;;;24.75;13.02;;;17.70;94.90;;;;;;5074811;28;20046;-73
2021/09/17 07:12:34;;;;;;;36.00;18.50;;;17.70;94.80;;;;;;5074061;28;20025;-73
2021/09/17 07:15:01;;;;;;;36.58;17.92;;;17.70;94.70;;;;;;5074678;28;20024;-72
2021/09/17 07:17:27;;;;;;;33.80;17.65;;;17.70;94.70;;;;;;5074262;28;20020;-73
2021/09/17 07:19:53;;;;;;;33.65;17.25;;;17.80;94.60;;;;;;5073183;28;20358;-72
2021/09/17 07:22:20;;;;;;;22.95;12.25;;;17.80;94.60;;;;;;5074299;28;20033;-72
2021/09/17 07:24:47;;;;;;;33.60;17.35;;;17.80;94.50;;;;;;5073799;28;20503;-72
2021/09/17 07:27:12;;;;;;;31.38;16.00;;;17.90;94.50;;;;;;5074200;28;20043;-72
2021/09/17 07:29:38;;;;;;;31.85;16.45;;;17.90;94.50;;;;;;5071923;28;20044;-72
2021/09/17 07:32:05;;;;;;;32.50;14.95;;;17.90;94.50;;;;;;5074353;28;20060;-72
2021/09/17 07:34:31;;;;;;;30.67;15.93;;;18.00;94.50;;;;;;5073604;28;20104;-73
2021/09/17 07:36:57;;;;;;;30.27;16.20;;;18.00;94.50;;;;;;5073929;28;20100;-72
2021/09/17 07:39:23;;;;;;;29.58;15.07;;;18.00;94.40;;;;;;5074195;28;20029;-72
2021/09/17 07:41:49;;;;;;;34.65;17.05;;;18.10;94.40;;;;;;5072216;28;20024;-72
2021/09/17 07:44:15;;;;;;;31.95;16.38;;;18.10;94.30;;;;;;5074134;28;20036;-72
2021/09/17 07:46:40;;;;;;;32.25;16.92;;;18.10;94.20;;;;;;5073414;28;20052;-73
2021/09/17 07:49:06;;;;;;;28.73;14.23;;;18.20;94.20;;;;;;5073836;28;20048;-72
2021/09/17 07:51:32;;;;;;;33.67;18.05;;;18.20;94.10;;;;;;5073137;28;20024;-73
2021/09/17 07:53:58;;;;;;;35.95;17.25;;;18.20;94.00;;;;;;5071699;28;20024;-71
2021/09/17 07:56:24;;;;;;;35.35;16.63;;;18.20;94.00;;;;;;5073794;28;20123;-72
2021/09/17 07:58:50;;;;;;;29.77;15.70;;;18.30;94.00;;;;;;5071880;28;20036;-72
2021/09/17 08:01:16;;;;;;;30.33;15.93;;;18.30;94.00;;;;;;5073789;28;20195;-72
2021/09/17 08:03:41;;;;;;;28.80;15.40;;;18.30;94.00;;;;;;5071580;28;20027;-72
2021/09/17 08:06:26;;;;;;;29.48;15.77;;;18.30;94.20;;;;;;5073898;28;20028;-72
2021/09/17 08:08:51;;;;;;;31.10;14.98;;;18.40;93.90;;;;;;5072960;28;20021;-72
2021/09/17 08:11:17;;;;;;;28.83;14.63;;;18.30;93.90;;;;;;5074953;28;20025;-72
2021/09/17 08:13:43;;;;;;;30.17;15.65;;;18.40;93.90;;;;;;5071705;28;20338;-74
2021/09/17 08:16:09;;;;;;;23.13;12.38;;;18.40;93.80;;;;;;5065414;28;20060;-73
2021/09/17 08:18:35;;;;;;;18.20;9.93;;;18.50;93.80;;;;;;5065316;28;20037;-73
2021/09/17 08:21:00;;;;;;;29.40;14.70;;;18.60;93.70;;;;;;5064987;28;20029;-73
2021/09/17 08:23:27;;;;;;;27.88;14.93;;;18.60;93.60;;;;;;5064974;28;20376;-74
2021/09/17 08:25:55;;;;;;;26.50;15.40;;;18.60;93.50;;;;;;5062076;28;20020;-73
2021/09/17 08:28:25;;;;;;;28.02;14.57;;;18.60;93.50;;;;;;5064022;28;20055;-74
2021/09/17 08:30:51;;;;;;;25.20;12.07;;;18.60;93.50;;;;;;5063580;28;20406;-74
2021/09/17 08:33:18;;;;;;;25.90;13.90;;;18.60;93.50;;;;;;5064587;28;20028;-75
2021/09/17 08:35:44;;;;;;;27.40;14.52;;;18.60;93.40;;;;;;5064235;28;20021;-74
2021/09/17 08:38:10;;;;;;;28.98;13.73;;;18.60;93.50;;;;;;5062619;28;20073;-74
2021/09/17 08:40:36;;;;;;;28.90;14.60;;;18.60;93.50;;;;;;5063723;28;20039;-73
2021/09/17 08:43:02;;;;;;;27.17;13.23;;;18.70;93.50;;;;;;5063416;28;20373;-74
2021/09/17 08:45:29;;;;;;;24.05;13.38;;;18.70;93.40;;;;;;5064043;28;20197;-76
2021/09/17 08:47:57;;;;;;;29.45;14.38;;;18.80;93.40;;;;;;5059630;28;20020;-73
2021/09/17 08:50:23;;;;;;;25.50;12.68;;;18.90;93.30;;;;;;5064303;28;20547;-73
2021/09/17 08:52:49;;;;;;;26.35;13.43;;;18.90;93.10;;;;;;5060476;28;20036;-74
2021/09/17 08:55:15;;;;;;;27.20;13.32;;;19.00;93.10;;;;;;5062600;28;20053;-74
2021/09/17 08:57:45;;;;;;;25.85;13.75;;;19.10;93.00;;;;;;5062830;28;20040;-73
2021/09/17 09:00:26;;;;;;;30.55;15.02;;;19.20;92.90;;;;;;5064627;28;20476;-73
2021/09/17 09:02:56;;;;;;;;;;;19.30;92.80;;;;;;5064828;28;20229;-73
2021/09/17 09:05:33;;;;;;;26.83;13.40;;;19.30;92.70;;;;;;5062758;28;19915;-73
2021/09/17 09:08:01;;;;;;;21.42;11.43;;;19.40;92.60;;;;;;5062844;28;20059;-73
2021/09/17 09:10:28;;;;;;;29.25;14.05;;;19.40;92.60;;;;;;5064008;28;20040;-73
2021/09/17 09:13:00;;;;;;;32.90;15.82;;;19.40;92.50;;;;;;5063497;28;20024;-74
2021/09/17 09:15:30;;;;;;;26.17;13.65;;;19.40;92.50;;;;;;5064000;28;20047;-75
2021/09/17 09:18:01;;;;;;;26.55;13.32;;;19.40;92.50;;;;;;5061443;28;20025;-74
2021/09/17 09:20:40;;;;;;;26.15;13.15;;;19.50;92.50;;;;;;5063439;28;20427;-74
2021/09/17 09:23:19;;;;;;;25.75;12.02;;;19.50;92.30;;;;;;5064341;28;20086;-73
2021/09/17 09:26:01;;;;;;;23.25;12.38;;;19.60;92.20;;;;;;5062502;28;20028;-74
2021/09/17 09:28:35;;;;;;;23.90;13.18;;;19.60;92.00;;;;;;5058586;28;20388;-74
2021/09/17 09:31:13;;;;;;;24.15;14.05;;;19.60;91.90;;;;;;5064549;28;20043;-72
2021/09/17 09:33:45;;;;;;;27.55;14.63;;;19.60;91.90;;;;;;5064627;28;20523;-74
2021/09/17 09:36:20;;;;;;;25.88;13.02;;;19.70;91.90;;;;;;5063298;28;20052;-73
2021/09/17 09:38:47;;;;;;;22.48;12.50;;;19.70;91.70;;;;;;5063001;28;20028;-75
2021/09/17 09:41:15;;;;;;;23.02;12.63;;;19.80;91.70;;;;;;5064728;28;20496;-75
2021/09/17 09:44:05;;;;;;;28.15;14.88;;;19.80;91.60;;;;;;5063711;28;20392;-75
2021/09/17 09:46:42;;;;;;;19.10;11.63;;;19.90;91.40;;;;;;5060818;28;20020;-74
2021/09/17 09:49:21;;;;;;;24.15;12.90;;;19.90;91.40;;;;;;5062181;28;20032;-73
2021/09/17 09:52:07;;;;;;;23.15;12.68;;;19.90;91.40;;;;;;5063826;28;20040;-74
2021/09/17 09:54:34;;;;;;;16.00;8.10;;;20.00;91.20;;;;;;5061945;28;20036;-73
2021/09/17 09:57:02;;;;;;;22.02;12.20;;;20.00;91.20;;;;;;5059652;28;20082;-74
2021/09/17 09:59:29;;;;;;;21.88;12.88;;;20.00;91.10;;;;;;5061937;28;20052;-73
2021/09/17 10:01:58;;;;;;;23.50;13.00;;;20.00;91.00;;;;;;5062401;28;20033;-73
2021/09/17 10:04:26;;;;;;;22.65;12.05;;;20.00;90.90;;;;;;5061934;28;20028;-73
2021/09/17 10:07:12;;;;;;;18.48;9.70;;;20.10;90.90;;;;;;5060723;28;20044;-75
2021/09/17 10:09:39;;;;;;;21.27;12.02;;;20.10;90.80;;;;;;5062457;28;20439;-75
2021/09/17 10:12:10;;;;;;;21.25;11.30;;;20.10;90.70;;;;;;5061262;28;20040;-74
2021/09/17 10:14:38;;;;;;;22.45;12.20;;;20.10;90.60;;;;;;5063809;28;20024;-76
2021/09/17 10:17:08;;;;;;;12.98;7.28;;;20.10;90.60;;;;;;5062981;28;20035;-73
2021/09/17 10:19:36;;;;;;;24.15;12.35;;;20.10;90.60;;;;;;5062440;28;20441;-73
2021/09/17 10:22:04;;;;;;;20.02;10.85;;;20.20;90.10;;;;;;5064174;28;20028;-74
2021/09/17 10:24:32;;;;;;;19.23;11.07;;;20.20;90.10;;;;;;5064056;28;20107;-74
2021/09/17 10:27:05;;;;;;;18.25;10.43;;;20.20;90.00;;;;;;5061920;28;20028;-74
2021/09/17 10:29:35;;;;;;;17.15;9.98;;;20.30;90.00;;;;;;5064173;28;20052;-74
2021/09/17 10:32:02;;;;;;;18.75;10.77;;;20.30;89.80;;;;;;5062057;28;20459;-74
2021/09/17 10:34:40;;;;;;;19.20;10.38;;;20.30;89.80;;;;;;5063392;28;20751;-74
2021/09/17 10:37:07;;;;;;;15.30;8.38;;;20.30;89.50;;;;;;5061339;28;20524;-74
2021/09/17 10:39:34;;;;;;;25.05;13.00;;;20.30;89.50;;;;;;5064647;28;20077;-74
2021/09/17 10:42:17;;;;;;;21.73;12.15;;;20.30;89.30;;;;;;5062904;28;20037;-74
2021/09/17 10:45:15;;;;;;;16.52;9.82;;;20.40;89.30;;;;;;5063669;28;20021;-74
2021/09/17 10:47:41;;;;;;;16.65;10.00;;;20.50;89.20;;;;;;5062394;28;20400;-74
2021/09/17 10:50:13;;;;;;;20.58;11.95;;;20.50;89.20;;;;;;5062300;28;20500;-75
2021/09/17 10:52:48;;;;;;;19.10;11.82;;;20.50;89.10;;;;;;5063928;28;20029;-76
2021/09/17 10:55:53;;;;;;;25.02;12.90;;;20.50;89.20;;;;;;5065997;28;20078;-74
2021/09/17 10:58:24;;;;;;;19.75;11.35;;;20.50;89.20;;;;;;5069807;28;20469;-75
2021/09/17 11:00:51;;;;;;;;;;;20.40;89.30;;;;;;5069278;28;20024;-75
2021/09/17 11:03:37;;;;;;;20.88;10.55;;;20.40;89.50;;;;;;5070899;28;20284;-73
2021/09/17 11:08:48;;;;;;;21.23;12.55;;;20.40;89.50;;;;;;5070473;28;20182;-74
2021/09/17 11:11:45;;;;;;;22.92;13.27;;;20.50;89.40;;;;;;5069705;28;20466;-73
2021/09/17 11:14:21;;;;;;;23.65;12.85;;;20.60;89.40;;;;;;5051841;28;20040;-73
2021/09/17 11:16:52;;;;;;;22.23;11.98;;;20.60;89.10;;;;;;5073380;28;20036;-73
2021/09/17 11:19:19;;;;;;;21.02;11.80;;;20.70;89.00;;;;;;5072968;28;20035;-74
2021/09/17 11:21:47;;;;;;;25.80;12.88;;;20.70;88.80;;;;;;5072605;28;20381;-74
2021/09/17 11:24:19;;;;;;;25.95;14.93;;;20.70;88.80;;;;;;5074682;28;20504;-73
2021/09/17 11:26:46;;;;;;;23.90;13.13;;;20.70;88.70;;;;;;5073638;28;20020;-74
2021/09/17 11:29:14;;;;;;;28.60;13.93;;;20.70;88.70;;;;;;5073694;28;20051;-72
2021/09/17 11:31:51;;;;;;;19.67;10.48;;;20.60;88.60;;;;;;5053084;28;20040;-75
2021/09/17 11:34:20;;;;;;;25.58;12.40;;;20.70;88.80;;;;;;5054089;28;20025;-75
2021/09/17 11:36:45;;;;;;;24.27;13.40;;;20.70;88.60;;;;;;5053720;28;20044;-74
2021/09/17 11:39:19;;;;;;;17.83;9.43;;;20.70;88.50;;;;;;5052947;28;20389;-75
2021/09/17 11:41:48;;;;;;;25.63;12.13;;;20.70;88.40;;;;;;5052581;28;20409;-77
2021/09/17 11:44:34;;;;;;;17.38;9.52;;;20.70;88.50;;;;;;5053767;28;20110;-74
2021/09/17 11:47:02;;;;;;;20.00;11.73;;;20.70;88.60;;;;;;5053721;28;20028;-75
2021/09/17 11:49:30;;;;;;;17.40;10.32;;;20.70;88.50;;;;;;5053296;28;20067;-75
2021/09/17 11:51:58;;;;;;;22.55;12.32;;;20.70;88.60;;;;;;5053452;28;20477;-75
2021/09/17 11:54:23;;;;;;;16.25;8.85;;;20.60;88.70;;;;;;5053969;28;20032;-75
2021/09/17 11:57:05;;;;;;;25.30;11.93;;;20.60;88.90;;;;;;5053013;28;20029;-75
2021/09/17 11:59:31;;;;;;;25.92;14.35;;;20.70;88.80;;;;;;5053845;28;20079;-75
2021/09/17 12:02:16;;;;;;;26.13;13.05;;;20.60;88.70;;;;;;5053008;28;20362;-75
2021/09/17 12:04:45;;;;;;;24.30;13.23;;;20.60;88.60;;;;;;5052513;28;20028;-75
2021/09/17 12:07:11;;;;;;;24.05;12.77;;;20.70;88.60;;;;;;5053972;28;20017;-75
2021/09/17 12:09:37;;;;;;;22.50;11.57;;;20.80;88.50;;;;;;5052272;28;20445;-75
2021/09/17 12:12:04;;;;;;;26.80;14.80;;;20.80;88.40;;;;;;5053139;28;20559;-74
2021/09/17 12:14:30;;;;;;;23.65;12.80;;;20.90;88.30;;;;;;5053654;28;20469;-76
2021/09/17 12:17:04;;;;;;;24.90;13.52;;;20.90;88.20;;;;;;5052713;28;20036;-75
2021/09/17 12:19:30;;;;;;;27.02;14.60;;;20.80;88.20;;;;;;5053645;28;20159;-75
2021/09/17 12:22:02;;;;;;;21.60;12.32;;;20.80;88.10;;;;;;5052861;28;20028;-75
2021/09/17 12:24:28;;;;;;;23.08;12.40;;;20.80;88.10;;;;;;5052048;28;20056;-75
2021/09/17 12:26:59;;;;;;;24.40;13.45;;;20.90;88.00;;;;;;5052204;28;20036;-75
2021/09/17 12:29:25;;;;;;;20.65;12.35;;;21.00;87.60;;;;;;5053220;28;20469;-75
2021/09/17 12:31:51;;;;;;;12.90;7.35;;;21.00;87.30;;;;;;5052619;28;20054;-75
2021/09/17 12:34:20;;;;;;;20.05;10.50;;;21.10;87.10;;;;;;5053094;28;20025;-75